Time;durP1;ratioP1;P1;durP2;ratioP2;P2;SDS_P1;SDS_P2;PMS_P1;PMS_P2;Temp;Humidity;BMP_temperature;BMP_pressure;BME280_temperature;BME280_humidity;BME280_pressure;Samples;Min_cycle;Max_cycle;Signal;HPM_P1;HPM_P2
2023/01/14 08:21:05;;;;;;;2.97;2.00;;;3.70;99.90;;;;;;5115278;27;20279;-80
2023/01/14 08:26:12;;;;;;;7.17;2.77;;;3.90;99.90;;;;;;5134065;27;20271;-78
2023/01/14 08:29:42;;;;;;;2.60;1.87;;;4.00;99.90;;;;;;5132360;27;20284;-79
2023/01/14 08:32:07;;;;;;;3.83;2.13;;;4.40;99.90;;;;;;5135463;27;20632;-78
2023/01/14 08:34:33;;;;;;;4.73;2.23;;;5.20;99.90;;;;;;5134106;28;20632;-79
2023/01/14 08:36:58;;;;;;;3.87;1.90;;;5.80;99.90;;;;;;5132957;27;20641;-78
2023/01/14 08:39:24;;;;;;;7.63;1.97;;;6.20;99.90;;;;;;5131165;28;20196;-78
2023/01/14 08:41:50;;;;;;;3.93;2.33;;;6.40;99.90;;;;;;5131328;28;20529;-78
2023/01/14 08:44:16;;;;;;;2.50;1.70;;;6.70;99.90;;;;;;5131060;28;20171;-79
2023/01/14 08:46:42;;;;;;;3.10;1.53;;;6.90;99.90;;;;;;5133415;27;20196;-78
2023/01/14 08:49:10;;;;;;;2.90;2.07;;;6.90;99.90;;;;;;5133835;27;20204;-78
2023/01/14 08:51:36;;;;;;;7.80;4.60;;;6.50;99.90;;;;;;5132519;27;20263;-78
2023/01/14 08:54:02;;;;;;;7.77;6.40;;;6.10;99.90;;;;;;5132533;27;20208;-78
2023/01/14 08:56:27;;;;;;;3.10;1.90;;;5.90;99.90;;;;;;5131953;27;20174;-79
2023/01/14 08:58:53;;;;;;;2.40;1.23;;;5.80;99.90;;;;;;5132216;27;20202;-78
2023/01/14 09:01:20;;;;;;;3.33;1.63;;;5.80;99.90;;;;;;5131557;27;20569;-78
2023/01/14 09:03:46;;;;;;;4.23;1.87;;;6.10;99.90;;;;;;5130116;28;20260;-79
2023/01/14 09:06:13;;;;;;;3.27;1.20;;;6.30;99.90;;;;;;5132048;28;20202;-79
2023/01/14 09:17:05;;;;;;;5.50;2.30;;;7.00;99.90;;;;;;5134945;28;20276;-80
2023/01/14 09:19:32;;;;;;;1.97;1.20;;;7.40;99.90;;;;;;5135343;27;20623;-79
2023/01/14 09:21:58;;;;;;;3.47;1.43;;;7.30;99.90;;;;;;5133243;28;20175;-79
2023/01/14 09:24:24;;;;;;;1.70;0.90;;;7.10;99.90;;;;;;5131446;28;20565;-80
2023/01/14 09:26:50;;;;;;;3.50;1.10;;;7.20;99.90;;;;;;5130900;28;20723;-79
2023/01/14 09:29:16;;;;;;;3.77;1.47;;;7.00;99.90;;;;;;5132126;27;20671;-79
2023/01/14 09:31:41;;;;;;;1.50;1.10;;;7.20;99.90;;;;;;5131550;28;20195;-79
2023/01/14 09:34:07;;;;;;;2.03;1.40;;;7.50;99.90;;;;;;5132493;27;20568;-79
2023/01/14 09:36:33;;;;;;;2.80;1.40;;;7.80;99.90;;;;;;5132495;27;20640;-79
2023/01/14 09:38:58;;;;;;;4.07;1.77;;;8.30;99.90;;;;;;5130212;27;20246;-78
2023/01/14 09:41:26;;;;;;;3.37;1.70;;;9.00;99.90;;;;;;5118529;28;20607;-78
2023/01/14 09:43:52;;;;;;;3.07;1.70;;;9.10;99.90;;;;;;5119127;28;20160;-79
2023/01/14 09:46:26;;;;;;;3.03;1.70;;;8.50;99.90;;;;;;5117521;28;20195;-79
2023/01/14 09:48:55;;;;;;;4.20;1.40;;;7.80;99.90;;;;;;5118106;28;20210;-80
2023/01/14 09:51:20;;;;;;;2.07;1.30;;;7.70;99.90;;;;;;5120526;28;20582;-79
2023/01/14 09:54:21;;;;;;;1.83;1.07;;;7.60;99.90;;;;;;5118280;28;20172;-79
2023/01/14 09:56:55;;;;;;;2.77;1.27;;;7.60;99.90;;;;;;5119603;28;20170;-79
2023/01/14 09:59:42;;;;;;;2.37;1.27;;;8.10;99.90;;;;;;5118794;28;20239;-79
2023/01/14 10:02:18;;;;;;;2.33;1.10;;;8.60;99.90;;;;;;5118392;28;20172;-80
2023/01/14 10:04:52;;;;;;;1.70;1.10;;;9.00;99.90;;;;;;5120232;28;20201;-79
2023/01/14 10:07:20;;;;;;;1.37;0.97;;;8.80;99.90;;;;;;5120504;28;20172;-79
2023/01/14 10:09:58;;;;;;;1.27;1.10;;;8.50;99.90;;;;;;5118601;28;20191;-80
2023/01/14 10:12:40;;;;;;;1.50;1.00;;;8.40;99.90;;;;;;5119425;28;20175;-80
2023/01/14 10:15:17;;;;;;;1.87;1.03;;;8.10;99.90;;;;;;5119399;28;20168;-80
2023/01/14 10:17:48;;;;;;;3.80;1.20;;;7.90;99.90;;;;;;5117825;28;20299;-79
2023/01/14 10:20:24;;;;;;;2.13;1.00;;;7.80;99.90;;;;;;5119786;28;20187;-80
2023/01/14 10:23:02;;;;;;;1.97;1.23;;;7.60;99.90;;;;;;5119199;28;20179;-79
2023/01/14 10:25:28;;;;;;;3.40;1.20;;;7.40;99.90;;;;;;5118427;28;20694;-79
2023/01/14 10:27:56;;;;;;;1.90;0.90;;;7.30;99.90;;;;;;5119647;28;20219;-79
2023/01/14 10:30:30;;;;;;;1.47;1.00;;;7.30;99.90;;;;;;5120400;28;20251;-79
2023/01/14 10:32:58;;;;;;;1.93;1.07;;;7.30;99.90;;;;;;5119399;28;20172;-79
2023/01/14 10:35:32;;;;;;;2.50;1.20;;;7.30;99.90;;;;;;5117975;28;20171;-79
2023/01/14 10:37:58;;;;;;;1.67;1.00;;;7.30;99.90;;;;;;5119366;28;20187;-79
2023/01/14 10:40:26;;;;;;;1.20;0.80;;;7.10;99.90;;;;;;5117518;28;20238;-79
2023/01/14 10:42:54;;;;;;;2.27;1.00;;;7.10;99.90;;;;;;5117756;28;20184;-78
2023/01/14 10:45:20;;;;;;;2.20;1.10;;;7.10;99.90;;;;;;5119444;28;20205;-79
2023/01/14 10:47:47;;;;;;;2.37;1.70;;;7.10;99.90;;;;;;5116548;28;20205;-79
2023/01/14 10:50:29;;;;;;;2.80;1.57;;;7.20;99.90;;;;;;5120519;28;20177;-80
2023/01/14 10:53:12;;;;;;;3.37;1.60;;;7.20;99.90;;;;;;5118199;28;20172;-80
2023/01/14 10:55:48;;;;;;;2.63;1.43;;;7.20;99.90;;;;;;5120335;28;20562;-80
2023/01/14 10:58:27;;;;;;;4.53;1.10;;;7.20;99.90;;;;;;5119011;28;20197;-80
2023/01/14 11:01:01;;;;;;;3.20;1.30;;;7.20;99.90;;;;;;5119488;28;20181;-79
2023/01/14 11:03:37;;;;;;;2.30;1.00;;;7.20;99.90;;;;;;5117846;28;20566;-79
2023/01/14 11:06:08;;;;;;;1.93;1.10;;;7.20;99.90;;;;;;5120024;28;20169;-79
2023/01/14 11:08:36;;;;;;;4.13;1.03;;;7.20;99.90;;;;;;5119166;27;20210;-79
2023/01/14 11:11:08;;;;;;;2.43;1.33;;;7.20;99.90;;;;;;5119107;28;20601;-79
2023/01/14 11:13:43;;;;;;;2.20;1.40;;;7.20;99.90;;;;;;5119376;28;20169;-79
2023/01/14 11:16:21;;;;;;;4.83;1.77;;;7.30;99.90;;;;;;5115442;28;20181;-78
2023/01/14 11:19:01;;;;;;;2.50;1.80;;;7.30;99.90;;;;;;5114978;28;20294;-79
2023/01/14 11:21:33;;;;;;;2.00;1.60;;;7.30;99.90;;;;;;5116522;28;20200;-79
2023/01/14 11:24:03;;;;;;;3.80;2.20;;;7.30;99.90;;;;;;5116955;27;20708;-78
2023/01/14 11:26:31;;;;;;;5.73;2.00;;;7.40;99.90;;;;;;5116135;28;20173;-78
2023/01/14 11:29:22;;;;;;;8.03;2.60;;;7.50;99.90;;;;;;5114478;28;20234;-78
2023/01/14 11:32:10;;;;;;;7.47;2.27;;;7.50;99.90;;;;;;5114818;28;20184;-78
2023/01/14 11:34:56;;;;;;;6.87;2.57;;;7.70;99.90;;;;;;5114866;28;20169;-79
2023/01/14 11:37:25;;;;;;;5.50;3.13;;;7.80;99.90;;;;;;5113790;28;20180;-78
2023/01/14 11:40:00;;;;;;;3.67;2.00;;;8.00;99.90;;;;;;5114594;28;20779;-78
2023/01/14 11:42:40;;;;;;;3.93;1.73;;;8.30;99.90;;;;;;5115614;28;20277;-78
2023/01/14 11:45:12;;;;;;;6.63;1.70;;;8.40;99.90;;;;;;5113727;28;20542;-80
2023/01/14 11:47:57;;;;;;;2.77;1.30;;;9.30;99.90;;;;;;5113503;28;20201;-78
2023/01/14 11:50:29;;;;;;;3.40;1.67;;;9.40;99.90;;;;;;5114460;28;20175;-78
2023/01/14 11:53:02;;;;;;;2.60;1.40;;;10.00;99.90;;;;;;5115300;28;20191;-79
2023/01/14 11:55:34;;;;;;;2.63;1.87;;;10.50;99.90;;;;;;5115575;28;20180;-79
2023/01/14 11:58:08;;;;;;;1.10;0.80;;;10.90;99.90;;;;;;5121223;28;20188;-79
2023/01/14 12:00:36;;;;;;;1.63;1.23;;;10.60;99.90;;;;;;5121024;28;20195;-79
2023/01/14 12:03:07;;;;;;;2.67;1.47;;;10.40;99.40;;;;;;5124233;28;20178;-79
2023/01/14 12:05:34;;;;;;;1.90;1.33;;;10.50;99.90;;;;;;5123486;28;20176;-80
2023/01/14 12:08:07;;;;;;;3.10;1.57;;;10.30;99.90;;;;;;5118868;28;20579;-80
2023/01/14 12:10:42;;;;;;;2.73;1.10;;;10.20;99.90;;;;;;5117946;28;20263;-81
2023/01/14 12:19:31;;;;;;;1.33;1.20;;;9.80;99.90;;;;;;5125809;28;20197;-79
2023/01/14 12:22:19;;;;;;;1.07;0.97;;;9.80;99.90;;;;;;5132133;28;20172;-79
2023/01/14 12:24:44;;;;;;;1.30;0.80;;;9.60;99.90;;;;;;5126768;28;20252;-79
2023/01/14 12:27:41;;;;;;;1.87;1.10;;;9.50;99.90;;;;;;5116531;28;20202;-80
2023/01/14 12:30:15;;;;;;;3.20;1.00;;;9.40;99.90;;;;;;5117343;28;20183;-79
2023/01/14 12:33:16;;;;;;;2.60;1.50;;;9.30;99.90;;;;;;5118024;28;20293;-79
2023/01/14 12:35:48;;;;;;;1.70;1.07;;;9.50;99.90;;;;;;5117416;28;20182;-79
2023/01/14 12:46:45;;;;;;;2.27;1.37;;;9.30;97.90;;;;;;5118036;28;20202;-79
2023/01/14 12:49:11;;;;;;;3.80;1.23;;;9.00;97.80;;;;;;5116184;28;20207;-79
2023/01/14 12:51:41;;;;;;;5.97;2.50;;;9.00;97.40;;;;;;5115596;28;20660;-80
2023/01/14 12:54:21;;;;;;;3.77;1.70;;;9.10;98.30;;;;;;5118463;28;20532;-79
2023/01/14 12:56:53;;;;;;;1.60;1.07;;;9.20;98.10;;;;;;5118202;28;20641;-79
2023/01/14 12:59:50;;;;;;;1.53;1.23;;;9.30;98.00;;;;;;5117124;28;20252;-79
2023/01/14 13:02:48;;;;;;;3.83;1.37;;;9.30;98.30;;;;;;5114148;28;20188;-79
2023/01/14 13:05:26;;;;;;;1.93;1.00;;;9.30;98.60;;;;;;5112001;28;20187;-79
2023/01/14 13:07:59;;;;;;;1.90;1.20;;;9.30;98.20;;;;;;5116445;28;20205;-79
2023/01/14 13:10:37;;;;;;;1.10;0.97;;;9.30;98.40;;;;;;5115203;28;20166;-79
2023/01/14 13:13:05;;;;;;;5.50;1.37;;;9.40;98.60;;;;;;5115560;28;20174;-79
2023/01/14 13:15:34;;;;;;;1.70;1.10;;;9.40;99.00;;;;;;5118911;28;20176;-79
2023/01/14 13:18:04;;;;;;;1.80;1.07;;;9.30;98.40;;;;;;5122241;28;20191;-79
2023/01/14 13:20:32;;;;;;;2.97;1.10;;;9.30;98.80;;;;;;5122396;28;20658;-79
2023/01/14 13:23:02;;;;;;;2.37;1.30;;;9.30;98.70;;;;;;5122313;28;20164;-80
2023/01/14 13:25:40;;;;;;;1.97;1.30;;;9.40;99.20;;;;;;5122742;28;20239;-80
2023/01/14 13:28:12;;;;;;;2.80;2.07;;;9.40;98.90;;;;;;5121474;28;20203;-79
2023/01/14 13:30:49;;;;;;;3.13;1.77;;;9.30;98.90;;;;;;5120182;28;20179;-79
2023/01/14 13:33:16;;;;;;;2.07;1.13;;;9.30;99.20;;;;;;5122098;28;20175;-79
2023/01/14 13:36:02;;;;;;;1.93;1.60;;;9.30;99.40;;;;;;5120827;28;20172;-80
2023/01/14 13:38:30;;;;;;;1.50;1.07;;;9.20;99.80;;;;;;5122078;28;20590;-79
2023/01/14 13:41:06;;;;;;;2.27;1.50;;;9.00;99.60;;;;;;5121635;28;20168;-79
2023/01/14 13:43:38;;;;;;;6.43;1.90;;;8.80;99.90;;;;;;5121571;28;20171;-80
2023/01/14 13:46:07;;;;;;;3.27;1.80;;;8.80;99.90;;;;;;5120213;28;20493;-81
2023/01/14 13:48:37;;;;;;;2.57;1.60;;;8.80;99.90;;;;;;5120251;28;20208;-80
2023/01/14 13:51:20;;;;;;;2.07;1.43;;;8.80;99.90;;;;;;5121955;28;20175;-79
2023/01/14 13:54:12;;;;;;;1.90;1.40;;;8.80;99.90;;;;;;5121720;28;20263;-79
2023/01/14 13:57:06;;;;;;;5.03;3.03;;;8.90;99.90;;;;;;5122362;28;20167;-79
2023/01/14 13:59:34;;;;;;;10.70;8.37;;;8.90;99.90;;;;;;5118685;28;20234;-79
2023/01/14 14:02:00;;;;;;;11.43;8.47;;;8.90;99.90;;;;;;5121341;28;20629;-80
2023/01/14 14:04:54;;;;;;;12.77;8.90;;;8.90;99.90;;;;;;5122224;28;20205;-80
2023/01/14 14:07:44;;;;;;;5.87;2.93;;;8.90;99.90;;;;;;5120667;28;20194;-80
2023/01/14 14:10:53;;;;;;;1.97;1.50;;;8.80;99.90;;;;;;5121357;28;20190;-79
2023/01/14 14:16:22;;;;;;;1.77;1.47;;;8.50;99.90;;;;;;5119871;28;20260;-79
2023/01/14 14:18:56;;;;;;;1.50;1.40;;;8.40;99.90;;;;;;5118895;28;20248;-79
2023/01/14 14:21:29;;;;;;;2.07;1.50;;;8.30;99.90;;;;;;5118484;28;20178;-79
2023/01/14 14:23:59;;;;;;;2.57;1.40;;;8.30;99.90;;;;;;5118130;28;20629;-80
2023/01/14 14:26:28;;;;;;;1.70;1.60;;;8.20;99.90;;;;;;5123216;28;20168;-79
2023/01/14 14:28:59;;;;;;;2.20;1.30;;;8.10;99.90;;;;;;5131455;27;20590;-78
2023/01/14 14:31:34;;;;;;;2.63;1.67;;;8.00;99.90;;;;;;5132318;28;20248;-79
2023/01/14 14:34:10;;;;;;;2.73;1.30;;;8.00;99.90;;;;;;5129351;28;20240;-79
2023/01/14 14:36:38;;;;;;;4.33;1.83;;;7.90;99.90;;;;;;5127606;28;20176;-79
2023/01/14 14:39:17;;;;;;;2.53;1.60;;;7.90;99.90;;;;;;5115652;28;20558;-78
2023/01/14 14:41:45;;;;;;;2.97;2.13;;;7.80;99.90;;;;;;5121786;28;20182;-78
2023/01/14 14:44:21;;;;;;;4.63;2.47;;;7.80;99.90;;;;;;5129870;28;20234;-78
2023/01/14 14:46:47;;;;;;;4.13;2.00;;;7.70;99.90;;;;;;5123111;27;20218;-78
